sensor_id;sensor_type;location;lat;lon;timestamp;P1;P2;P0
72509;PMS5003;60532;56.114;40.350;2022-09-27T00:00:33;15.00;11.00;7.25
72509;PMS5003;60532;56.114;40.350;2022-09-27T00:02:34;14.50;12.75;7.50
72509;PMS5003;60532;56.114;40.350;2022-09-27T00:04:34;12.00;12.00;6.00
72509;PMS5003;60532;56.114;40.350;2022-09-27T00:06:35;11.50;11.00;7.50
72509;PMS5003;60532;56.114;40.350;2022-09-27T00:08:35;13.00;13.00;6.50
72509;PMS5003;60532;56.114;40.350;2022-09-27T00:10:36;18.00;14.50;7.50
72509;PMS5003;60532;56.114;40.350;2022-09-27T00:12:36;17.00;14.00;7.00
72509;PMS5003;60532;56.114;40.350;2022-09-27T00:14:37;17.60;13.00;6.00
72509;PMS5003;60532;56.114;40.350;2022-09-27T00:16:38;12.75;11.75;6.00
72509;PMS5003;60532;56.114;40.350;2022-09-27T00:18:39;15.00;11.40;6.60
72509;PMS5003;60532;56.114;40.350;2022-09-27T00:20:39;14.25;12.25;6.00
72509;PMS5003;60532;56.114;40.350;2022-09-27T00:22:40;13.00;11.50;6.75
72509;PMS5003;60532;56.114;40.350;2022-09-27T00:24:40;10.50;8.00;4.00
72509;PMS5003;60532;56.114;40.350;2022-09-27T00:26:41;14.00;14.00;7.00
72509;PMS5003;60532;56.114;40.350;2022-09-27T00:28:42;18.00;13.40;7.00
72509;PMS5003;60532;56.114;40.350;2022-09-27T00:30:43;11.25;8.25;6.00
72509;PMS5003;60532;56.114;40.350;2022-09-27T00:32:43;13.50;11.75;6.00
72509;PMS5003;60532;56.114;40.350;2022-09-27T00:34:44;14.25;11.00;6.50
72509;PMS5003;60532;56.114;40.350;2022-09-27T00:36:44;11.50;11.25;6.00
72509;PMS5003;60532;56.114;40.350;2022-09-27T00:38:45;15.50;13.25;7.00
72509;PMS5003;60532;56.114;40.350;2022-09-27T00:40:45;14.75;11.75;6.75
72509;PMS5003;60532;56.114;40.350;2022-09-27T00:42:47;16.80;14.20;8.00
72509;PMS5003;60532;56.114;40.350;2022-09-27T00:45:08;15.00;13.00;8.00
72509;PMS5003;60532;56.114;40.350;2022-09-27T00:47:24;13.80;13.40;7.00
72509;PMS5003;60532;56.114;40.350;2022-09-27T00:49:49;17.40;13.00;7.00
72509;PMS5003;60532;56.114;40.350;2022-09-27T00:51:48;11.80;9.60;5.20
72509;PMS5003;60532;56.114;40.350;2022-09-27T00:53:50;6.00;6.00;1.60
72509;PMS5003;60532;56.114;40.350;2022-09-27T00:55:56;12.80;11.40;7.00
72509;PMS5003;60532;56.114;40.350;2022-09-27T00:57:59;13.20;12.80;6.00
72509;PMS5003;60532;56.114;40.350;2022-09-27T01:00:05;10.60;8.80;4.00
72509;PMS5003;60532;56.114;40.350;2022-09-27T01:02:06;12.80;11.00;7.00
72509;PMS5003;60532;56.114;40.350;2022-09-27T01:04:08;17.00;13.00;7.00
72509;PMS5003;60532;56.114;40.350;2022-09-27T01:06:09;14.20;11.40;6.20
72509;PMS5003;60532;56.114;40.350;2022-09-27T01:08:10;12.20;12.20;6.00
72509;PMS5003;60532;56.114;40.350;2022-09-27T01:10:11;9.00;9.00;6.25
72509;PMS5003;60532;56.114;40.350;2022-09-27T01:14:23;11.60;10.60;6.00
72509;PMS5003;60532;56.114;40.350;2022-09-27T01:33:57;14.00;13.00;7.75
72509;PMS5003;60532;56.114;40.350;2022-09-27T01:36:15;15.20;12.60;6.00
72509;PMS5003;60532;56.114;40.350;2022-09-27T01:38:25;13.80;12.00;6.00
72509;PMS5003;60532;56.114;40.350;2022-09-27T01:42:36;13.25;11.25;7.00
72509;PMS5003;60532;56.114;40.350;2022-09-27T01:44:53;15.00;13.00;7.00
72509;PMS5003;60532;56.114;40.350;2022-09-27T01:46:58;16.00;14.00;7.00
72509;PMS5003;60532;56.114;40.350;2022-09-27T01:49:01;11.00;9.00;6.00
72509;PMS5003;60532;56.114;40.350;2022-09-27T01:53:47;13.80;12.20;7.40
72509;PMS5003;60532;56.114;40.350;2022-09-27T01:55:51;13.40;13.40;7.80
72509;PMS5003;60532;56.114;40.350;2022-09-27T01:57:57;17.80;13.80;6.00
72509;PMS5003;60532;56.114;40.350;2022-09-27T02:00:02;15.20;13.60;7.00
72509;PMS5003;60532;56.114;40.350;2022-09-27T02:02:06;17.40;15.60;7.80
72509;PMS5003;60532;56.114;40.350;2022-09-27T02:04:07;17.00;14.00;7.20
72509;PMS5003;60532;56.114;40.350;2022-09-27T02:06:53;13.60;12.80;7.60
72509;PMS5003;60532;56.114;40.350;2022-09-27T02:10:49;14.40;12.60;6.60
72509;PMS5003;60532;56.114;40.350;2022-09-27T02:12:51;14.00;11.20;6.00
72509;PMS5003;60532;56.114;40.350;2022-09-27T02:14:57;18.60;15.00;8.20
72509;PMS5003;60532;56.114;40.350;2022-09-27T02:21:44;18.80;15.60;8.20
72509;PMS5003;60532;56.114;40.350;2022-09-27T02:23:51;18.40;14.60;8.40
72509;PMS5003;60532;56.114;40.350;2022-09-27T02:25:56;16.40;13.40;7.00
72509;PMS5003;60532;56.114;40.350;2022-09-27T02:28:04;15.80;12.60;7.00
72509;PMS5003;60532;56.114;40.350;2022-09-27T02:30:10;17.00;16.20;8.00
72509;PMS5003;60532;56.114;40.350;2022-09-27T02:32:11;15.40;15.20;6.60
72509;PMS5003;60532;56.114;40.350;2022-09-27T02:34:17;21.75;18.25;8.50
72509;PMS5003;60532;56.114;40.350;2022-09-27T02:36:19;17.20;13.40;7.00
72509;PMS5003;60532;56.114;40.350;2022-09-27T02:38:20;22.20;16.40;7.20
72509;PMS5003;60532;56.114;40.350;2022-09-27T02:40:20;21.50;13.00;6.50
72509;PMS5003;60532;56.114;40.350;2022-09-27T02:42:21;16.00;10.60;6.20
72509;PMS5003;60532;56.114;40.350;2022-09-27T02:44:22;20.00;14.50;8.00
72509;PMS5003;60532;56.114;40.350;2022-09-27T02:46:34;18.00;15.20;6.40
72509;PMS5003;60532;56.114;40.350;2022-09-27T03:03:54;16.75;15.25;8.25
72509;PMS5003;60532;56.114;40.350;2022-09-27T03:06:05;22.20;21.60;9.80
72509;PMS5003;60532;56.114;40.350;2022-09-27T03:08:07;21.20;17.00;8.00
72509;PMS5003;60532;56.114;40.350;2022-09-27T03:10:14;17.80;17.00;8.00
72509;PMS5003;60532;56.114;40.350;2022-09-27T03:12:15;22.60;18.20;9.00
72509;PMS5003;60532;56.114;40.350;2022-09-27T03:14:21;18.20;16.60;7.20
72509;PMS5003;60532;56.114;40.350;2022-09-27T03:16:22;20.00;17.75;9.00
72509;PMS5003;60532;56.114;40.350;2022-09-27T03:18:22;15.00;14.75;7.00
72509;PMS5003;60532;56.114;40.350;2022-09-27T03:20:23;17.25;16.50;8.75
72509;PMS5003;60532;56.114;40.350;2022-09-27T03:22:23;20.50;17.75;8.00
72509;PMS5003;60532;56.114;40.350;2022-09-27T03:24:24;19.25;16.25;8.75
72509;PMS5003;60532;56.114;40.350;2022-09-27T03:26:24;18.50;18.00;8.00
72509;PMS5003;60532;56.114;40.350;2022-09-27T03:28:25;16.00;12.50;6.00
72509;PMS5003;60532;56.114;40.350;2022-09-27T03:30:25;28.75;17.25;8.00
72509;PMS5003;60532;56.114;40.350;2022-09-27T03:32:26;15.25;15.00;7.00
72509;PMS5003;60532;56.114;40.350;2022-09-27T03:34:26;19.75;19.75;8.00
72509;PMS5003;60532;56.114;40.350;2022-09-27T03:36:27;12.75;9.25;2.25
72509;PMS5003;60532;56.114;40.350;2022-09-27T03:38:27;17.00;13.00;7.00
72509;PMS5003;60532;56.114;40.350;2022-09-27T03:40:28;17.00;14.75;6.75
72509;PMS5003;60532;56.114;40.350;2022-09-27T03:42:28;12.00;8.75;1.25
72509;PMS5003;60532;56.114;40.350;2022-09-27T03:44:29;18.75;11.50;6.00
72509;PMS5003;60532;56.114;40.350;2022-09-27T03:46:29;16.75;13.00;6.50
72509;PMS5003;60532;56.114;40.350;2022-09-27T03:48:30;14.25;13.25;8.00
72509;PMS5003;60532;56.114;40.350;2022-09-27T03:50:30;18.00;16.75;8.00
72509;PMS5003;60532;56.114;40.350;2022-09-27T03:52:31;24.25;19.50;8.75
72509;PMS5003;60532;56.114;40.350;2022-09-27T03:54:31;12.25;12.25;6.25
72509;PMS5003;60532;56.114;40.350;2022-09-27T03:56:32;14.25;12.50;6.00
72509;PMS5003;60532;56.114;40.350;2022-09-27T03:58:32;17.25;16.00;6.00
72509;PMS5003;60532;56.114;40.350;2022-09-27T04:00:33;19.50;16.25;6.75
72509;PMS5003;60532;56.114;40.350;2022-09-27T04:02:35;14.00;12.40;6.20
72509;PMS5003;60532;56.114;40.350;2022-09-27T04:04:36;17.00;17.00;8.00
72509;PMS5003;60532;56.114;40.350;2022-09-27T04:06:36;16.25;13.00;6.75
72509;PMS5003;60532;56.114;40.350;2022-09-27T04:08:37;15.75;14.75;7.00
72509;PMS5003;60532;56.114;40.350;2022-09-27T04:10:37;26.25;17.50;7.75
72509;PMS5003;60532;56.114;40.350;2022-09-27T04:12:38;24.00;18.75;11.00
72509;PMS5003;60532;56.114;40.350;2022-09-27T04:14:39;19.20;15.00;3.40
72509;PMS5003;60532;56.114;40.350;2022-09-27T04:16:39;16.25;15.75;7.25
72509;PMS5003;60532;56.114;40.350;2022-09-27T04:18:40;29.00;19.25;8.00
72509;PMS5003;60532;56.114;40.350;2022-09-27T04:20:40;19.25;17.00;8.00
72509;PMS5003;60532;56.114;40.350;2022-09-27T04:22:40;20.25;17.25;8.25
72509;PMS5003;60532;56.114;40.350;2022-09-27T04:24:43;20.60;16.80;8.40
72509;PMS5003;60532;56.114;40.350;2022-09-27T04:26:43;20.25;19.50;9.00
72509;PMS5003;60532;56.114;40.350;2022-09-27T04:28:44;17.75;17.25;7.25
72509;PMS5003;60532;56.114;40.350;2022-09-27T04:30:45;19.60;18.60;9.80
72509;PMS5003;60532;56.114;40.350;2022-09-27T04:32:46;22.25;18.25;8.00
72509;PMS5003;60532;56.114;40.350;2022-09-27T04:34:46;22.50;18.25;7.75
72509;PMS5003;60532;56.114;40.350;2022-09-27T04:37:05;19.60;18.00;10.40
72509;PMS5003;60532;56.114;40.350;2022-09-27T04:39:06;23.75;20.50;8.50
72509;PMS5003;60532;56.114;40.350;2022-09-27T04:41:07;28.40;20.80;9.00
72509;PMS5003;60532;56.114;40.350;2022-09-27T04:43:08;30.20;19.60;10.40
72509;PMS5003;60532;56.114;40.350;2022-09-27T04:45:09;30.75;20.00;9.50
72509;PMS5003;60532;56.114;40.350;2022-09-27T04:47:12;22.60;18.00;8.00
72509;PMS5003;60532;56.114;40.350;2022-09-27T04:49:13;18.00;15.75;8.25
72509;PMS5003;60532;56.114;40.350;2022-09-27T04:51:14;22.25;17.50;8.75
72509;PMS5003;60532;56.114;40.350;2022-09-27T04:53:17;18.00;18.00;8.00
72509;PMS5003;60532;56.114;40.350;2022-09-27T04:55:18;18.75;18.00;8.00
72509;PMS5003;60532;56.114;40.350;2022-09-27T04:57:19;19.00;17.80;7.00
72509;PMS5003;60532;56.114;40.350;2022-09-27T04:59:20;13.50;13.50;7.00
72509;PMS5003;60532;56.114;40.350;2022-09-27T05:01:20;19.00;14.25;8.00
72509;PMS5003;60532;56.114;40.350;2022-09-27T05:03:22;14.00;13.60;5.20
72509;PMS5003;60532;56.114;40.350;2022-09-27T05:05:22;21.50;17.50;8.00
72509;PMS5003;60532;56.114;40.350;2022-09-27T05:07:23;22.50;17.75;7.75
72509;PMS5003;60532;56.114;40.350;2022-09-27T05:09:23;19.25;18.75;8.25
72509;PMS5003;60532;56.114;40.350;2022-09-27T05:11:24;20.75;17.75;8.00
72509;PMS5003;60532;56.114;40.350;2022-09-27T05:13:25;19.80;18.00;9.00
72509;PMS5003;60532;56.114;40.350;2022-09-27T05:15:25;22.00;17.75;8.00
72509;PMS5003;60532;56.114;40.350;2022-09-27T05:17:26;23.25;17.75;8.00
72509;PMS5003;60532;56.114;40.350;2022-09-27T05:19:27;16.25;15.00;6.00
72509;PMS5003;60532;56.114;40.350;2022-09-27T05:21:27;16.25;16.25;6.00
72509;PMS5003;60532;56.114;40.350;2022-09-27T05:23:28;20.00;15.00;6.75
72509;PMS5003;60532;56.114;40.350;2022-09-27T05:25:28;14.50;14.50;7.00
72509;PMS5003;60532;56.114;40.350;2022-09-27T05:27:30;20.00;16.40;8.00
72509;PMS5003;60532;56.114;40.350;2022-09-27T05:29:30;12.75;12.00;6.00
72509;PMS5003;60532;56.114;40.350;2022-09-27T05:31:31;16.00;13.50;7.25
72509;PMS5003;60532;56.114;40.350;2022-09-27T05:33:31;18.50;14.00;7.00
72509;PMS5003;60532;56.114;40.350;2022-09-27T05:35:33;18.40;13.00;7.00
72509;PMS5003;60532;56.114;40.350;2022-09-27T05:37:35;20.40;16.20;8.00
72509;PMS5003;60532;56.114;40.350;2022-09-27T05:39:35;17.25;16.50;7.25
72509;PMS5003;60532;56.114;40.350;2022-09-27T05:41:36;18.75;16.00;8.00
72509;PMS5003;60532;56.114;40.350;2022-09-27T05:43:36;25.50;17.25;6.75
72509;PMS5003;60532;56.114;40.350;2022-09-27T05:45:37;21.00;16.00;7.75
72509;PMS5003;60532;56.114;40.350;2022-09-27T05:47:37;13.00;13.00;6.25
72509;PMS5003;60532;56.114;40.350;2022-09-27T05:49:38;19.25;16.75;7.75
72509;PMS5003;60532;56.114;40.350;2022-09-27T05:51:39;20.40;18.80;8.00
72509;PMS5003;60532;56.114;40.350;2022-09-27T05:53:40;14.75;14.25;8.00
72509;PMS5003;60532;56.114;40.350;2022-09-27T05:55:41;14.25;12.75;5.50
72509;PMS5003;60532;56.114;40.350;2022-09-27T05:57:42;22.20;16.00;7.40
72509;PMS5003;60532;56.114;40.350;2022-09-27T05:59:52;19.80;17.20;7.60
72509;PMS5003;60532;56.114;40.350;2022-09-27T06:01:53;18.25;16.75;7.00
72509;PMS5003;60532;56.114;40.350;2022-09-27T06:03:53;24.60;17.60;8.00
72509;PMS5003;60532;56.114;40.350;2022-09-27T06:05:54;17.75;15.75;6.75
72509;PMS5003;60532;56.114;40.350;2022-09-27T06:07:58;14.50;14.25;7.50
72509;PMS5003;60532;56.114;40.350;2022-09-27T06:09:59;19.40;14.60;8.00
72509;PMS5003;60532;56.114;40.350;2022-09-27T06:12:00;18.50;16.75;6.75
72509;PMS5003;60532;56.114;40.350;2022-09-27T06:14:00;27.00;19.25;7.00
72509;PMS5003;60532;56.114;40.350;2022-09-27T06:16:02;16.50;16.50;8.50
72509;PMS5003;60532;56.114;40.350;2022-09-27T06:18:04;17.60;16.60;10.20
72509;PMS5003;60532;56.114;40.350;2022-09-27T06:20:05;22.80;16.20;8.80
72509;PMS5003;60532;56.114;40.350;2022-09-27T06:22:08;16.40;13.40;6.00
72509;PMS5003;60532;56.114;40.350;2022-09-27T06:24:08;25.00;20.75;9.75
72509;PMS5003;60532;56.114;40.350;2022-09-27T06:26:08;18.25;17.25;8.00
72509;PMS5003;60532;56.114;40.350;2022-09-27T06:28:10;18.60;16.60;8.00
72509;PMS5003;60532;56.114;40.350;2022-09-27T06:30:11;25.20;20.60;11.40
72509;PMS5003;60532;56.114;40.350;2022-09-27T06:32:11;21.40;19.40;8.00
72509;PMS5003;60532;56.114;40.350;2022-09-27T06:34:12;20.00;18.25;9.00
72509;PMS5003;60532;56.114;40.350;2022-09-27T06:36:12;21.25;18.00;9.00
72509;PMS5003;60532;56.114;40.350;2022-09-27T06:38:14;17.25;14.50;4.50
72509;PMS5003;60532;56.114;40.350;2022-09-27T06:40:14;17.00;14.20;7.00
72509;PMS5003;60532;56.114;40.350;2022-09-27T06:42:15;17.00;15.50;7.25
72509;PMS5003;60532;56.114;40.350;2022-09-27T06:44:17;20.20;16.60;7.80
72509;PMS5003;60532;56.114;40.350;2022-09-27T06:46:17;16.00;15.50;7.00
72509;PMS5003;60532;56.114;40.350;2022-09-27T06:48:18;21.00;19.50;8.75
72509;PMS5003;60532;56.114;40.350;2022-09-27T06:50:18;14.00;13.75;8.25
72509;PMS5003;60532;56.114;40.350;2022-09-27T06:52:19;20.00;17.50;8.25
72509;PMS5003;60532;56.114;40.350;2022-09-27T06:54:19;16.75;14.25;7.00
72509;PMS5003;60532;56.114;40.350;2022-09-27T06:56:19;19.00;17.00;8.00
72509;PMS5003;60532;56.114;40.350;2022-09-27T06:58:20;19.00;16.25;8.00
72509;PMS5003;60532;56.114;40.350;2022-09-27T07:00:39;22.20;20.40;8.40
72509;PMS5003;60532;56.114;40.350;2022-09-27T07:02:41;17.20;16.00;7.60
72509;PMS5003;60532;56.114;40.350;2022-09-27T07:04:41;19.00;14.25;8.00
72509;PMS5003;60532;56.114;40.350;2022-09-27T07:06:43;21.00;15.00;6.00
72509;PMS5003;60532;56.114;40.350;2022-09-27T07:08:43;22.50;19.75;8.50
72509;PMS5003;60532;56.114;40.350;2022-09-27T07:10:44;22.00;18.50;9.00
72509;PMS5003;60532;56.114;40.350;2022-09-27T07:12:44;20.25;16.50;8.00
72509;PMS5003;60532;56.114;40.350;2022-09-27T07:14:47;23.20;18.20;9.00
72509;PMS5003;60532;56.114;40.350;2022-09-27T07:16:48;18.20;15.20;8.20
72509;PMS5003;60532;56.114;40.350;2022-09-27T07:18:49;16.50;15.00;7.25
72509;PMS5003;60532;56.114;40.350;2022-09-27T07:20:50;23.50;18.25;8.25
72509;PMS5003;60532;56.114;40.350;2022-09-27T07:22:50;18.25;15.50;7.75
72509;PMS5003;60532;56.114;40.350;2022-09-27T07:24:51;19.50;15.50;7.25
72509;PMS5003;60532;56.114;40.350;2022-09-27T07:26:51;18.25;18.25;8.50
72509;PMS5003;60532;56.114;40.350;2022-09-27T07:28:52;14.00;13.00;6.75
72509;PMS5003;60532;56.114;40.350;2022-09-27T07:30:53;22.25;19.00;9.00
72509;PMS5003;60532;56.114;40.350;2022-09-27T07:32:58;20.40;20.40;9.20
72509;PMS5003;60532;56.114;40.350;2022-09-27T07:34:58;20.80;17.00;5.60
72509;PMS5003;60532;56.114;40.350;2022-09-27T07:36:59;8.50;7.75;6.00
72509;PMS5003;60532;56.114;40.350;2022-09-27T07:39:00;21.20;17.00;8.60
72509;PMS5003;60532;56.114;40.350;2022-09-27T07:41:07;21.75;16.50;7.50
72509;PMS5003;60532;56.114;40.350;2022-09-27T07:43:08;18.60;16.80;7.20
72509;PMS5003;60532;56.114;40.350;2022-09-27T07:45:09;19.75;18.25;9.00
72509;PMS5003;60532;56.114;40.350;2022-09-27T07:47:10;19.60;17.40;8.40
72509;PMS5003;60532;56.114;40.350;2022-09-27T07:49:11;19.00;19.00;8.25
72509;PMS5003;60532;56.114;40.350;2022-09-27T07:51:11;21.50;18.50;8.00
72509;PMS5003;60532;56.114;40.350;2022-09-27T07:53:12;21.00;12.00;7.00
72509;PMS5003;60532;56.114;40.350;2022-09-27T07:55:13;20.20;17.60;7.00
72509;PMS5003;60532;56.114;40.350;2022-09-27T07:57:14;19.60;17.60;9.20
72509;PMS5003;60532;56.114;40.350;2022-09-27T07:59:15;28.20;19.00;9.20
72509;PMS5003;60532;56.114;40.350;2022-09-27T08:01:15;22.00;16.50;9.00
72509;PMS5003;60532;56.114;40.350;2022-09-27T08:03:16;17.50;15.75;7.75
72509;PMS5003;60532;56.114;40.350;2022-09-27T08:05:17;20.25;15.50;7.50
72509;PMS5003;60532;56.114;40.350;2022-09-27T08:07:17;23.50;22.25;8.00
72509;PMS5003;60532;56.114;40.350;2022-09-27T08:09:17;22.50;18.75;9.00
72509;PMS5003;60532;56.114;40.350;2022-09-27T08:11:18;21.75;13.50;7.25
72509;PMS5003;60532;56.114;40.350;2022-09-27T08:13:19;23.80;18.20;8.60
72509;PMS5003;60532;56.114;40.350;2022-09-27T08:15:19;30.25;24.75;12.00
72509;PMS5003;60532;56.114;40.350;2022-09-27T08:17:20;16.50;15.00;7.50
72509;PMS5003;60532;56.114;40.350;2022-09-27T08:19:20;22.50;22.50;12.00
72509;PMS5003;60532;56.114;40.350;2022-09-27T08:21:21;22.25;21.00;10.00
72509;PMS5003;60532;56.114;40.350;2022-09-27T08:23:21;19.75;19.00;8.50
72509;PMS5003;60532;56.114;40.350;2022-09-27T08:25:22;26.00;21.00;11.50
72509;PMS5003;60532;56.114;40.350;2022-09-27T08:27:23;23.20;22.20;10.60
72509;PMS5003;60532;56.114;40.350;2022-09-27T08:29:24;22.75;22.00;11.50
72509;PMS5003;60532;56.114;40.350;2022-09-27T08:31:24;29.50;18.75;8.75
72509;PMS5003;60532;56.114;40.350;2022-09-27T08:33:25;23.75;23.00;11.50
72509;PMS5003;60532;56.114;40.350;2022-09-27T08:35:26;11.40;8.40;1.00
72509;PMS5003;60532;56.114;40.350;2022-09-27T08:37:28;19.60;16.60;8.60
72509;PMS5003;60532;56.114;40.350;2022-09-27T08:39:29;25.75;17.00;8.75
72509;PMS5003;60532;56.114;40.350;2022-09-27T08:41:33;22.60;20.60;10.40
72509;PMS5003;60532;56.114;40.350;2022-09-27T08:46:26;19.60;17.60;8.80
72509;PMS5003;60532;56.114;40.350;2022-09-27T08:48:05;23.00;19.80;9.00
72509;PMS5003;60532;56.114;40.350;2022-09-27T08:50:14;19.80;16.60;9.00
72509;PMS5003;60532;56.114;40.350;2022-09-27T08:52:21;16.00;14.20;8.00
72509;PMS5003;60532;56.114;40.350;2022-09-27T08:54:27;18.20;13.40;7.40
72509;PMS5003;60532;56.114;40.350;2022-09-27T08:56:29;18.00;15.00;7.20
72509;PMS5003;60532;56.114;40.350;2022-09-27T08:58:34;14.00;14.00;7.80
72509;PMS5003;60532;56.114;40.350;2022-09-27T09:00:36;22.80;18.20;6.20
72509;PMS5003;60532;56.114;40.350;2022-09-27T09:02:36;15.00;13.25;6.25
72509;PMS5003;60532;56.114;40.350;2022-09-27T09:04:38;14.00;14.00;9.00
72509;PMS5003;60532;56.114;40.350;2022-09-27T09:19:59;18.60;16.80;10.00
72509;PMS5003;60532;56.114;40.350;2022-09-27T09:28:41;16.00;13.80;8.00
72509;PMS5003;60532;56.114;40.350;2022-09-27T09:30:55;16.40;13.80;7.40
72509;PMS5003;60532;56.114;40.350;2022-09-27T09:35:06;11.60;11.60;7.20
72509;PMS5003;60532;56.114;40.350;2022-09-27T09:37:11;15.60;12.20;4.80
72509;PMS5003;60532;56.114;40.350;2022-09-27T09:39:18;14.20;14.20;7.00
72509;PMS5003;60532;56.114;40.350;2022-09-27T09:43:28;15.60;13.60;7.00
72509;PMS5003;60532;56.114;40.350;2022-09-27T09:45:35;11.20;10.40;6.20
72509;PMS5003;60532;56.114;40.350;2022-09-27T09:47:42;10.80;10.40;5.00
72509;PMS5003;60532;56.114;40.350;2022-09-27T09:49:47;9.80;8.80;4.80
72509;PMS5003;60532;56.114;40.350;2022-09-27T09:51:51;16.60;14.40;5.40
72509;PMS5003;60532;56.114;40.350;2022-09-27T09:56:06;8.80;8.80;4.00
72509;PMS5003;60532;56.114;40.350;2022-09-27T09:58:18;9.80;9.40;4.40
72509;PMS5003;60532;56.114;40.350;2022-09-27T10:00:21;10.00;10.00;4.00
72509;PMS5003;60532;56.114;40.350;2022-09-27T10:04:25;9.40;9.40;3.40
72509;PMS5003;60532;56.114;40.350;2022-09-27T10:06:27;9.20;8.20;6.00
72509;PMS5003;60532;56.114;40.350;2022-09-27T10:08:28;8.40;7.20;3.00
72509;PMS5003;60532;56.114;40.350;2022-09-27T10:10:28;9.25;7.75;3.75
72509;PMS5003;60532;56.114;40.350;2022-09-27T10:12:29;8.75;8.25;4.00
72509;PMS5003;60532;56.114;40.350;2022-09-27T10:14:29;8.00;6.00;4.50
72509;PMS5003;60532;56.114;40.350;2022-09-27T10:16:31;8.40;8.40;4.00
72509;PMS5003;60532;56.114;40.350;2022-09-27T10:18:32;8.25;7.00;2.25
72509;PMS5003;60532;56.114;40.350;2022-09-27T10:20:41;9.40;8.00;4.80
72509;PMS5003;60532;56.114;40.350;2022-09-27T10:22:44;7.40;6.80;3.40
72509;PMS5003;60532;56.114;40.350;2022-09-27T10:26:58;8.20;8.20;5.40
72509;PMS5003;60532;56.114;40.350;2022-09-27T10:29:13;8.00;8.00;4.00
72509;PMS5003;60532;56.114;40.350;2022-09-27T10:31:17;9.20;8.00;3.60
72509;PMS5003;60532;56.114;40.350;2022-09-27T10:33:18;10.60;10.60;6.60
72509;PMS5003;60532;56.114;40.350;2022-09-27T10:37:28;10.00;10.00;7.40
72509;PMS5003;60532;56.114;40.350;2022-09-27T10:39:29;13.25;10.50;6.50
72509;PMS5003;60532;56.114;40.350;2022-09-27T10:43:31;14.20;13.60;9.00
72509;PMS5003;60532;56.114;40.350;2022-09-27T10:45:32;16.60;14.20;8.00
72509;PMS5003;60532;56.114;40.350;2022-09-27T10:47:33;30.75;27.75;16.25
72509;PMS5003;60532;56.114;40.350;2022-09-27T10:49:37;31.75;30.50;17.50
72509;PMS5003;60532;56.114;40.350;2022-09-27T10:51:39;37.20;31.80;20.00
72509;PMS5003;60532;56.114;40.350;2022-09-27T10:53:43;40.50;32.50;21.25
72509;PMS5003;60532;56.114;40.350;2022-09-27T10:55:48;35.00;30.80;18.20
72509;PMS5003;60532;56.114;40.350;2022-09-27T10:57:49;33.00;29.80;17.40
72509;PMS5003;60532;56.114;40.350;2022-09-27T10:59:55;24.20;21.60;15.00
72509;PMS5003;60532;56.114;40.350;2022-09-27T11:01:57;20.20;19.00;11.00
72509;PMS5003;60532;56.114;40.350;2022-09-27T11:03:58;21.50;21.00;14.00
72509;PMS5003;60532;56.114;40.350;2022-09-27T11:05:59;18.00;17.20;11.00
72509;PMS5003;60532;56.114;40.350;2022-09-27T11:08:01;19.75;16.25;10.50
72509;PMS5003;60532;56.114;40.350;2022-09-27T11:10:23;17.60;17.60;10.00
72509;PMS5003;60532;56.114;40.350;2022-09-27T11:12:27;16.40;15.60;8.60
72509;PMS5003;60532;56.114;40.350;2022-09-27T11:14:29;20.00;18.00;11.00
72509;PMS5003;60532;56.114;40.350;2022-09-27T11:28:11;22.60;21.40;10.00
72509;PMS5003;60532;56.114;40.350;2022-09-27T11:30:18;22.60;18.40;9.80
72509;PMS5003;60532;56.114;40.350;2022-09-27T11:43:35;14.60;13.20;9.00
72509;PMS5003;60532;56.114;40.350;2022-09-27T11:45:41;15.00;14.60;9.00
72509;PMS5003;60532;56.114;40.350;2022-09-27T11:52:16;11.60;11.60;7.00
72509;PMS5003;60532;56.114;40.350;2022-09-27T11:56:44;15.20;14.40;7.80
72509;PMS5003;60532;56.114;40.350;2022-09-27T12:00:55;19.50;15.75;7.75
72509;PMS5003;60532;56.114;40.350;2022-09-27T12:09:24;13.60;13.20;6.40
72509;PMS5003;60532;56.114;40.350;2022-09-27T12:13:39;12.80;10.80;5.80
72509;PMS5003;60532;56.114;40.350;2022-09-27T12:15:41;10.00;10.00;6.40
72509;PMS5003;60532;56.114;40.350;2022-09-27T12:17:44;14.20;12.20;7.00
72509;PMS5003;60532;56.114;40.350;2022-09-27T12:19:46;15.60;15.00;7.40
72509;PMS5003;60532;56.114;40.350;2022-09-27T12:21:51;21.20;16.80;8.60
72509;PMS5003;60532;56.114;40.350;2022-09-27T12:23:54;18.00;16.40;9.60
72509;PMS5003;60532;56.114;40.350;2022-09-27T12:26:01;22.20;19.60;9.60
72509;PMS5003;60532;56.114;40.350;2022-09-27T12:28:05;23.60;18.20;9.60
72509;PMS5003;60532;56.114;40.350;2022-09-27T12:30:11;17.40;13.00;7.80
72509;PMS5003;60532;56.114;40.350;2022-09-27T12:34:17;19.80;16.80;8.40
72509;PMS5003;60532;56.114;40.350;2022-09-27T12:36:20;24.40;22.60;13.20
72509;PMS5003;60532;56.114;40.350;2022-09-27T12:38:42;25.60;23.40;11.80
72509;PMS5003;60532;56.114;40.350;2022-09-27T12:40:47;23.40;23.40;13.60
72509;PMS5003;60532;56.114;40.350;2022-09-27T12:42:49;35.00;30.00;17.00
72509;PMS5003;60532;56.114;40.350;2022-09-27T12:44:52;34.20;32.60;18.80
72509;PMS5003;60532;56.114;40.350;2022-09-27T12:49:09;33.00;29.75;17.50
72509;PMS5003;60532;56.114;40.350;2022-09-27T12:51:13;39.00;32.80;19.80
72509;PMS5003;60532;56.114;40.350;2022-09-27T12:53:26;40.80;34.60;19.00
72509;PMS5003;60532;56.114;40.350;2022-09-27T12:55:46;35.80;29.60;18.80
72509;PMS5003;60532;56.114;40.350;2022-09-27T13:00:21;32.80;29.80;17.60
72509;PMS5003;60532;56.114;40.350;2022-09-27T13:02:35;30.40;29.00;18.20
72509;PMS5003;60532;56.114;40.350;2022-09-27T13:13:22;20.40;18.20;9.60
72509;PMS5003;60532;56.114;40.350;2022-09-27T13:19:37;17.00;15.40;7.40
72509;PMS5003;60532;56.114;40.350;2022-09-27T13:23:48;18.40;16.60;9.00
72509;PMS5003;60532;56.114;40.350;2022-09-27T13:25:59;15.20;15.20;9.00
72509;PMS5003;60532;56.114;40.350;2022-09-27T13:28:02;15.80;12.00;4.60
72509;PMS5003;60532;56.114;40.350;2022-09-27T13:32:13;17.60;16.60;9.20
72509;PMS5003;60532;56.114;40.350;2022-09-27T13:36:35;16.20;15.00;9.20
72509;PMS5003;60532;56.114;40.350;2022-09-27T13:38:36;20.60;18.40;9.00
72509;PMS5003;60532;56.114;40.350;2022-09-27T13:40:39;14.00;14.00;8.25
72509;PMS5003;60532;56.114;40.350;2022-09-27T13:43:24;13.20;11.20;8.80
72509;PMS5003;60532;56.114;40.350;2022-09-27T13:45:23;9.20;8.40;4.00
72509;PMS5003;60532;56.114;40.350;2022-09-27T13:47:29;15.40;10.80;7.00
72509;PMS5003;60532;56.114;40.350;2022-09-27T13:49:36;10.40;10.00;5.00
72509;PMS5003;60532;56.114;40.350;2022-09-27T13:51:42;15.80;13.60;7.40
72509;PMS5003;60532;56.114;40.350;2022-09-27T13:53:55;14.40;13.80;9.00
72509;PMS5003;60532;56.114;40.350;2022-09-27T13:55:56;15.00;14.00;8.40
72509;PMS5003;60532;56.114;40.350;2022-09-27T13:57:57;17.20;16.20;9.00
72509;PMS5003;60532;56.114;40.350;2022-09-27T13:59:58;17.40;15.20;9.20